<?xml version="1.0" encoding="UTF-8" standalone="no" ?>
<gpx xmlns="http://www.topografix.com/GPX/1/1" xmlns:xsi="http://www.w3.org/2001/XMLSchema-instance" xsi:schemaLocation="http://www.topografix.com/GPX/1/1 http://www.topografix.com/GPX/1/1/gpx.xsd" version="1.1" creator="VisuGPX - https://www.visugpx.com">
  <metadata>
    <name>rando autour de Bullion </name>
    <desc><![CDATA[rando autour de Bullion au depart de Bonnelles privilégiant les petits chemins ]]></desc>
  </metadata>
  <trk>
    <name><![CDATA[bonnelles]]></name>
    <extensions>
      <line xmlns="http://www.topografix.com/GPX/gpx_style/0/2">
        <color>0000FF</color>
        <width>4</width>
      </line>
    </extensions>
    <trkseg>
      <trkpt lat="48.61756" lon="2.02381">
        <ele>111</ele>
        <time>2021-02-06T11:37:43Z</time>
      </trkpt>
      <trkpt lat="48.6176" lon="2.02378">
        <ele>111</ele>
        <time>2021-02-06T11:37:45Z</time>
      </trkpt>
      <trkpt lat="48.61769" lon="2.02383">
        <ele>111</ele>
        <time>2021-02-06T11:37:50Z</time>
      </trkpt>
      <trkpt lat="48.61789" lon="2.02431">
        <ele>113</ele>
        <time>2021-02-06T11:38:09Z</time>
      </trkpt>
      <trkpt lat="48.61802" lon="2.02451">
        <ele>113</ele>
        <time>2021-02-06T11:38:18Z</time>
      </trkpt>
      <trkpt lat="48.61808" lon="2.02454">
        <ele>113</ele>
        <time>2021-02-06T11:38:21Z</time>
      </trkpt>
      <trkpt lat="48.61815" lon="2.02449">
        <ele>113</ele>
        <time>2021-02-06T11:38:25Z</time>
      </trkpt>
      <trkpt lat="48.6182" lon="2.02424">
        <ele>113</ele>
        <time>2021-02-06T11:38:34Z</time>
      </trkpt>
      <trkpt lat="48.6183" lon="2.02409">
        <ele>113</ele>
        <time>2021-02-06T11:38:41Z</time>
      </trkpt>
      <trkpt lat="48.61881" lon="2.02383">
        <ele>114</ele>
        <time>2021-02-06T11:39:08Z</time>
      </trkpt>
      <trkpt lat="48.61896" lon="2.02379">
        <ele>115</ele>
        <time>2021-02-06T11:39:16Z</time>
      </trkpt>
      <trkpt lat="48.61918" lon="2.02377">
        <ele>116</ele>
        <time>2021-02-06T11:39:27Z</time>
      </trkpt>
      <trkpt lat="48.61939" lon="2.02366">
        <ele>117</ele>
        <time>2021-02-06T11:39:38Z</time>
      </trkpt>
      <trkpt lat="48.61963" lon="2.02363">
        <ele>118</ele>
        <time>2021-02-06T11:39:50Z</time>
      </trkpt>
      <trkpt lat="48.61975" lon="2.0237">
        <ele>118</ele>
        <time>2021-02-06T11:39:56Z</time>
      </trkpt>
      <trkpt lat="48.61979" lon="2.0239">
        <ele>117</ele>
        <time>2021-02-06T11:40:03Z</time>
      </trkpt>
      <trkpt lat="48.61983" lon="2.02393">
        <ele>117</ele>
        <time>2021-02-06T11:40:05Z</time>
      </trkpt>
      <trkpt lat="48.62007" lon="2.02389">
        <ele>118</ele>
        <time>2021-02-06T11:40:17Z</time>
      </trkpt>
      <trkpt lat="48.62034" lon="2.02378">
        <ele>119</ele>
        <time>2021-02-06T11:40:31Z</time>
      </trkpt>
      <trkpt lat="48.62071" lon="2.02351">
        <ele>120</ele>
        <time>2021-02-06T11:40:52Z</time>
      </trkpt>
      <trkpt lat="48.62094" lon="2.02328">
        <ele>120</ele>
        <time>2021-02-06T11:41:06Z</time>
      </trkpt>
      <trkpt lat="48.62101" lon="2.02325">
        <ele>121</ele>
        <time>2021-02-06T11:41:09Z</time>
      </trkpt>
      <trkpt lat="48.62145" lon="2.02327">
        <ele>122</ele>
        <time>2021-02-06T11:41:31Z</time>
      </trkpt>
      <trkpt lat="48.62157" lon="2.0234">
        <ele>123</ele>
        <time>2021-02-06T11:41:39Z</time>
      </trkpt>
      <trkpt lat="48.62165" lon="2.02354">
        <ele>123</ele>
        <time>2021-02-06T11:41:45Z</time>
      </trkpt>
      <trkpt lat="48.62171" lon="2.0236">
        <ele>123</ele>
        <time>2021-02-06T11:41:49Z</time>
      </trkpt>
      <trkpt lat="48.6218" lon="2.02364">
        <ele>123</ele>
        <time>2021-02-06T11:41:53Z</time>
      </trkpt>
      <trkpt lat="48.62189" lon="2.02363">
        <ele>124</ele>
        <time>2021-02-06T11:41:58Z</time>
      </trkpt>
      <trkpt lat="48.62205" lon="2.02352">
        <ele>124</ele>
        <time>2021-02-06T11:42:07Z</time>
      </trkpt>
      <trkpt lat="48.6222" lon="2.02355">
        <ele>125</ele>
        <time>2021-02-06T11:42:14Z</time>
      </trkpt>
      <trkpt lat="48.62235" lon="2.0235">
        <ele>125</ele>
        <time>2021-02-06T11:42:22Z</time>
      </trkpt>
      <trkpt lat="48.62257" lon="2.02347">
        <ele>126</ele>
        <time>2021-02-06T11:42:33Z</time>
      </trkpt>
      <trkpt lat="48.62275" lon="2.02332">
        <ele>127</ele>
        <time>2021-02-06T11:42:43Z</time>
      </trkpt>
      <trkpt lat="48.62294" lon="2.02309">
        <ele>128</ele>
        <time>2021-02-06T11:42:55Z</time>
      </trkpt>
      <trkpt lat="48.62316" lon="2.02294">
        <ele>129</ele>
        <time>2021-02-06T11:43:07Z</time>
      </trkpt>
      <trkpt lat="48.62335" lon="2.02277">
        <ele>129</ele>
        <time>2021-02-06T11:43:18Z</time>
      </trkpt>
      <trkpt lat="48.62343" lon="2.02273">
        <ele>129</ele>
        <time>2021-02-06T11:43:23Z</time>
      </trkpt>
      <trkpt lat="48.62353" lon="2.02273">
        <ele>130</ele>
        <time>2021-02-06T11:43:28Z</time>
      </trkpt>
      <trkpt lat="48.62427" lon="2.02188">
        <ele>135</ele>
        <time>2021-02-06T11:44:14Z</time>
      </trkpt>
      <trkpt lat="48.62453" lon="2.0214">
        <ele>138</ele>
        <time>2021-02-06T11:44:35Z</time>
      </trkpt>
      <trkpt lat="48.62459" lon="2.02124">
        <ele>139</ele>
        <time>2021-02-06T11:44:41Z</time>
      </trkpt>
      <trkpt lat="48.62464" lon="2.02099">
        <ele>140</ele>
        <time>2021-02-06T11:44:49Z</time>
      </trkpt>
      <trkpt lat="48.62486" lon="2.02049">
        <ele>140</ele>
        <time>2021-02-06T11:45:09Z</time>
      </trkpt>
      <trkpt lat="48.62493" lon="2.02039">
        <ele>140</ele>
        <time>2021-02-06T11:45:14Z</time>
      </trkpt>
      <trkpt lat="48.62497" lon="2.0204">
        <ele>141</ele>
        <time>2021-02-06T11:45:16Z</time>
      </trkpt>
      <trkpt lat="48.62519" lon="2.02067">
        <ele>147</ele>
        <time>2021-02-06T11:45:30Z</time>
      </trkpt>
      <trkpt lat="48.62538" lon="2.02095">
        <ele>153</ele>
        <time>2021-02-06T11:45:44Z</time>
      </trkpt>
      <trkpt lat="48.62548" lon="2.02104">
        <ele>155</ele>
        <time>2021-02-06T11:45:49Z</time>
      </trkpt>
      <trkpt lat="48.62553" lon="2.021">
        <ele>156</ele>
        <time>2021-02-06T11:45:52Z</time>
      </trkpt>
      <trkpt lat="48.62557" lon="2.02087">
        <ele>157</ele>
        <time>2021-02-06T11:45:57Z</time>
      </trkpt>
      <trkpt lat="48.62563" lon="2.02084">
        <ele>158</ele>
        <time>2021-02-06T11:46:00Z</time>
      </trkpt>
      <trkpt lat="48.6257" lon="2.02071">
        <ele>159</ele>
        <time>2021-02-06T11:46:06Z</time>
      </trkpt>
      <trkpt lat="48.62592" lon="2.02061">
        <ele>162</ele>
        <time>2021-02-06T11:46:17Z</time>
      </trkpt>
      <trkpt lat="48.62595" lon="2.02049">
        <ele>162</ele>
        <time>2021-02-06T11:46:21Z</time>
      </trkpt>
      <trkpt lat="48.62597" lon="2.01992">
        <ele>159</ele>
        <time>2021-02-06T11:46:40Z</time>
      </trkpt>
      <trkpt lat="48.62619" lon="2.01933">
        <ele>160</ele>
        <time>2021-02-06T11:47:03Z</time>
      </trkpt>
      <trkpt lat="48.62638" lon="2.01896">
        <ele>162</ele>
        <time>2021-02-06T11:47:18Z</time>
      </trkpt>
      <trkpt lat="48.62641" lon="2.01868">
        <ele>160</ele>
        <time>2021-02-06T11:47:28Z</time>
      </trkpt>
      <trkpt lat="48.62634" lon="2.01831">
        <ele>156</ele>
        <time>2021-02-06T11:47:40Z</time>
      </trkpt>
      <trkpt lat="48.62614" lon="2.01786">
        <ele>149</ele>
        <time>2021-02-06T11:47:58Z</time>
      </trkpt>
      <trkpt lat="48.62609" lon="2.01768">
        <ele>147</ele>
        <time>2021-02-06T11:48:05Z</time>
      </trkpt>
      <trkpt lat="48.62609" lon="2.01756">
        <ele>145</ele>
        <time>2021-02-06T11:48:09Z</time>
      </trkpt>
      <trkpt lat="48.62616" lon="2.01721">
        <ele>145</ele>
        <time>2021-02-06T11:48:21Z</time>
      </trkpt>
      <trkpt lat="48.62626" lon="2.01704">
        <ele>146</ele>
        <time>2021-02-06T11:48:28Z</time>
      </trkpt>
      <trkpt lat="48.62639" lon="2.01661">
        <ele>146</ele>
        <time>2021-02-06T11:48:44Z</time>
      </trkpt>
      <trkpt lat="48.62641" lon="2.01642">
        <ele>146</ele>
        <time>2021-02-06T11:48:50Z</time>
      </trkpt>
      <trkpt lat="48.62639" lon="2.01575">
        <ele>146</ele>
        <time>2021-02-06T11:49:12Z</time>
      </trkpt>
      <trkpt lat="48.62617" lon="2.01542">
        <ele>146</ele>
        <time>2021-02-06T11:49:28Z</time>
      </trkpt>
      <trkpt lat="48.62616" lon="2.01532">
        <ele>146</ele>
        <time>2021-02-06T11:49:31Z</time>
      </trkpt>
      <trkpt lat="48.62624" lon="2.01516">
        <ele>146</ele>
        <time>2021-02-06T11:49:38Z</time>
      </trkpt>
      <trkpt lat="48.62654" lon="2.01479">
        <ele>146</ele>
        <time>2021-02-06T11:49:57Z</time>
      </trkpt>
      <trkpt lat="48.6266" lon="2.01457">
        <ele>147</ele>
        <time>2021-02-06T11:50:05Z</time>
      </trkpt>
      <trkpt lat="48.62659" lon="2.01442">
        <ele>147</ele>
        <time>2021-02-06T11:50:10Z</time>
      </trkpt>
      <trkpt lat="48.62652" lon="2.01421">
        <ele>147</ele>
        <time>2021-02-06T11:50:18Z</time>
      </trkpt>
      <trkpt lat="48.6265" lon="2.01392">
        <ele>147</ele>
        <time>2021-02-06T11:50:28Z</time>
      </trkpt>
      <trkpt lat="48.62643" lon="2.01352">
        <ele>147</ele>
        <time>2021-02-06T11:50:41Z</time>
      </trkpt>
      <trkpt lat="48.62643" lon="2.01313">
        <ele>146</ele>
        <time>2021-02-06T11:50:54Z</time>
      </trkpt>
      <trkpt lat="48.62645" lon="2.01305">
        <ele>145</ele>
        <time>2021-02-06T11:50:57Z</time>
      </trkpt>
      <trkpt lat="48.62684" lon="2.01263">
        <ele>144</ele>
        <time>2021-02-06T11:51:21Z</time>
      </trkpt>
      <trkpt lat="48.62697" lon="2.01254">
        <ele>144</ele>
        <time>2021-02-06T11:51:28Z</time>
      </trkpt>
      <trkpt lat="48.62714" lon="2.01232">
        <ele>143</ele>
        <time>2021-02-06T11:51:39Z</time>
      </trkpt>
      <trkpt lat="48.62745" lon="2.01222">
        <ele>143</ele>
        <time>2021-02-06T11:51:55Z</time>
      </trkpt>
      <trkpt lat="48.62762" lon="2.01208">
        <ele>143</ele>
        <time>2021-02-06T11:52:05Z</time>
      </trkpt>
      <trkpt lat="48.62778" lon="2.01206">
        <ele>144</ele>
        <time>2021-02-06T11:52:13Z</time>
      </trkpt>
      <trkpt lat="48.62784" lon="2.01203">
        <ele>144</ele>
        <time>2021-02-06T11:52:16Z</time>
      </trkpt>
      <trkpt lat="48.62793" lon="2.01188">
        <ele>143</ele>
        <time>2021-02-06T11:52:23Z</time>
      </trkpt>
      <trkpt lat="48.62799" lon="2.01185">
        <ele>144</ele>
        <time>2021-02-06T11:52:26Z</time>
      </trkpt>
      <trkpt lat="48.62818" lon="2.01188">
        <ele>144</ele>
        <time>2021-02-06T11:52:36Z</time>
      </trkpt>
      <trkpt lat="48.62825" lon="2.01175">
        <ele>144</ele>
        <time>2021-02-06T11:52:41Z</time>
      </trkpt>
      <trkpt lat="48.62831" lon="2.01169">
        <ele>144</ele>
        <time>2021-02-06T11:52:45Z</time>
      </trkpt>
      <trkpt lat="48.62841" lon="2.01141">
        <ele>144</ele>
        <time>2021-02-06T11:52:55Z</time>
      </trkpt>
      <trkpt lat="48.62848" lon="2.0105">
        <ele>140</ele>
        <time>2021-02-06T11:53:25Z</time>
      </trkpt>
      <trkpt lat="48.62853" lon="2.01043">
        <ele>141</ele>
        <time>2021-02-06T11:53:29Z</time>
      </trkpt>
      <trkpt lat="48.62877" lon="2.01026">
        <ele>142</ele>
        <time>2021-02-06T11:53:42Z</time>
      </trkpt>
      <trkpt lat="48.62896" lon="2.00996">
        <ele>142</ele>
        <time>2021-02-06T11:53:56Z</time>
      </trkpt>
      <trkpt lat="48.62911" lon="2.00962">
        <ele>141</ele>
        <time>2021-02-06T11:54:09Z</time>
      </trkpt>
      <trkpt lat="48.62923" lon="2.00903">
        <ele>138</ele>
        <time>2021-02-06T11:54:30Z</time>
      </trkpt>
      <trkpt lat="48.62936" lon="2.00879">
        <ele>139</ele>
        <time>2021-02-06T11:54:40Z</time>
      </trkpt>
      <trkpt lat="48.62946" lon="2.00871">
        <ele>140</ele>
        <time>2021-02-06T11:54:46Z</time>
      </trkpt>
      <trkpt lat="48.62952" lon="2.00871">
        <ele>141</ele>
        <time>2021-02-06T11:54:49Z</time>
      </trkpt>
      <trkpt lat="48.6296" lon="2.00876">
        <ele>141</ele>
        <time>2021-02-06T11:54:53Z</time>
      </trkpt>
      <trkpt lat="48.62967" lon="2.00889">
        <ele>141</ele>
        <time>2021-02-06T11:54:59Z</time>
      </trkpt>
      <trkpt lat="48.62976" lon="2.00891">
        <ele>142</ele>
        <time>2021-02-06T11:55:03Z</time>
      </trkpt>
      <trkpt lat="48.62983" lon="2.00889">
        <ele>143</ele>
        <time>2021-02-06T11:55:07Z</time>
      </trkpt>
      <trkpt lat="48.62998" lon="2.00898">
        <ele>143</ele>
        <time>2021-02-06T11:55:15Z</time>
      </trkpt>
      <trkpt lat="48.63004" lon="2.00899">
        <ele>144</ele>
        <time>2021-02-06T11:55:18Z</time>
      </trkpt>
      <trkpt lat="48.63014" lon="2.00897">
        <ele>146</ele>
        <time>2021-02-06T11:55:23Z</time>
      </trkpt>
      <trkpt lat="48.63028" lon="2.00887">
        <ele>148</ele>
        <time>2021-02-06T11:55:31Z</time>
      </trkpt>
      <trkpt lat="48.63041" lon="2.00882">
        <ele>150</ele>
        <time>2021-02-06T11:55:37Z</time>
      </trkpt>
      <trkpt lat="48.63047" lon="2.00865">
        <ele>152</ele>
        <time>2021-02-06T11:55:44Z</time>
      </trkpt>
      <trkpt lat="48.63043" lon="2.00792">
        <ele>154</ele>
        <time>2021-02-06T11:56:08Z</time>
      </trkpt>
      <trkpt lat="48.63039" lon="2.00772">
        <ele>155</ele>
        <time>2021-02-06T11:56:15Z</time>
      </trkpt>
      <trkpt lat="48.63037" lon="2.00734">
        <ele>156</ele>
        <time>2021-02-06T11:56:27Z</time>
      </trkpt>
      <trkpt lat="48.63037" lon="2.00713">
        <ele>157</ele>
        <time>2021-02-06T11:56:34Z</time>
      </trkpt>
      <trkpt lat="48.63042" lon="2.0067">
        <ele>159</ele>
        <time>2021-02-06T11:56:49Z</time>
      </trkpt>
      <trkpt lat="48.6305" lon="2.00654">
        <ele>160</ele>
        <time>2021-02-06T11:56:56Z</time>
      </trkpt>
      <trkpt lat="48.63055" lon="2.0065">
        <ele>160</ele>
        <time>2021-02-06T11:56:58Z</time>
      </trkpt>
      <trkpt lat="48.63066" lon="2.00647">
        <ele>161</ele>
        <time>2021-02-06T11:57:04Z</time>
      </trkpt>
      <trkpt lat="48.63076" lon="2.00636">
        <ele>162</ele>
        <time>2021-02-06T11:57:10Z</time>
      </trkpt>
      <trkpt lat="48.63125" lon="2.00551">
        <ele>164</ele>
        <time>2021-02-06T11:57:47Z</time>
      </trkpt>
      <trkpt lat="48.63131" lon="2.00548">
        <ele>164</ele>
        <time>2021-02-06T11:57:51Z</time>
      </trkpt>
      <trkpt lat="48.63141" lon="2.00549">
        <ele>166</ele>
        <time>2021-02-06T11:57:56Z</time>
      </trkpt>
      <trkpt lat="48.6315" lon="2.00544">
        <ele>166</ele>
        <time>2021-02-06T11:58:00Z</time>
      </trkpt>
      <trkpt lat="48.63167" lon="2.00542">
        <ele>168</ele>
        <time>2021-02-06T11:58:09Z</time>
      </trkpt>
      <trkpt lat="48.63187" lon="2.0053">
        <ele>163</ele>
        <time>2021-02-06T11:58:20Z</time>
      </trkpt>
      <trkpt lat="48.632" lon="2.00527">
        <ele>161</ele>
        <time>2021-02-06T11:58:26Z</time>
      </trkpt>
      <trkpt lat="48.63208" lon="2.00521">
        <ele>160</ele>
        <time>2021-02-06T11:58:31Z</time>
      </trkpt>
      <trkpt lat="48.63221" lon="2.0052">
        <ele>158</ele>
        <time>2021-02-06T11:58:37Z</time>
      </trkpt>
      <trkpt lat="48.63238" lon="2.00515">
        <ele>156</ele>
        <time>2021-02-06T11:58:46Z</time>
      </trkpt>
      <trkpt lat="48.63261" lon="2.00514">
        <ele>154</ele>
        <time>2021-02-06T11:58:57Z</time>
      </trkpt>
      <trkpt lat="48.63297" lon="2.00492">
        <ele>152</ele>
        <time>2021-02-06T11:59:17Z</time>
      </trkpt>
      <trkpt lat="48.6331" lon="2.005">
        <ele>152</ele>
        <time>2021-02-06T11:59:24Z</time>
      </trkpt>
      <trkpt lat="48.63329" lon="2.005">
        <ele>152</ele>
        <time>2021-02-06T11:59:33Z</time>
      </trkpt>
      <trkpt lat="48.63341" lon="2.00496">
        <ele>153</ele>
        <time>2021-02-06T11:59:40Z</time>
      </trkpt>
      <trkpt lat="48.63354" lon="2.00471">
        <ele>153</ele>
        <time>2021-02-06T11:59:50Z</time>
      </trkpt>
      <trkpt lat="48.63363" lon="2.00464">
        <ele>154</ele>
        <time>2021-02-06T11:59:55Z</time>
      </trkpt>
      <trkpt lat="48.6337" lon="2.00464">
        <ele>154</ele>
        <time>2021-02-06T11:59:59Z</time>
      </trkpt>
      <trkpt lat="48.63377" lon="2.00476">
        <ele>155</ele>
        <time>2021-02-06T12:00:04Z</time>
      </trkpt>
      <trkpt lat="48.6338" lon="2.00477">
        <ele>155</ele>
        <time>2021-02-06T12:00:05Z</time>
      </trkpt>
      <trkpt lat="48.63382" lon="2.00475">
        <ele>155</ele>
        <time>2021-02-06T12:00:07Z</time>
      </trkpt>
      <trkpt lat="48.63391" lon="2.00441">
        <ele>154</ele>
        <time>2021-02-06T12:00:19Z</time>
      </trkpt>
      <trkpt lat="48.634" lon="2.00426">
        <ele>153</ele>
        <time>2021-02-06T12:00:25Z</time>
      </trkpt>
      <trkpt lat="48.63398" lon="2.00403">
        <ele>152</ele>
        <time>2021-02-06T12:00:33Z</time>
      </trkpt>
      <trkpt lat="48.63404" lon="2.00387">
        <ele>151</ele>
        <time>2021-02-06T12:00:39Z</time>
      </trkpt>
      <trkpt lat="48.63403" lon="2.00354">
        <ele>150</ele>
        <time>2021-02-06T12:00:50Z</time>
      </trkpt>
      <trkpt lat="48.63393" lon="2.00337">
        <ele>149</ele>
        <time>2021-02-06T12:00:58Z</time>
      </trkpt>
      <trkpt lat="48.6339" lon="2.00311">
        <ele>148</ele>
        <time>2021-02-06T12:01:06Z</time>
      </trkpt>
      <trkpt lat="48.63393" lon="2.00283">
        <ele>147</ele>
        <time>2021-02-06T12:01:16Z</time>
      </trkpt>
      <trkpt lat="48.63401" lon="2.00267">
        <ele>146</ele>
        <time>2021-02-06T12:01:22Z</time>
      </trkpt>
      <trkpt lat="48.63403" lon="2.00248">
        <ele>146</ele>
        <time>2021-02-06T12:01:29Z</time>
      </trkpt>
      <trkpt lat="48.63408" lon="2.0024">
        <ele>145</ele>
        <time>2021-02-06T12:01:32Z</time>
      </trkpt>
      <trkpt lat="48.6341" lon="2.00231">
        <ele>145</ele>
        <time>2021-02-06T12:01:36Z</time>
      </trkpt>
      <trkpt lat="48.63409" lon="2.00222">
        <ele>144</ele>
        <time>2021-02-06T12:01:39Z</time>
      </trkpt>
      <trkpt lat="48.63403" lon="2.00207">
        <ele>143</ele>
        <time>2021-02-06T12:01:44Z</time>
      </trkpt>
      <trkpt lat="48.63405" lon="2.00187">
        <ele>142</ele>
        <time>2021-02-06T12:01:51Z</time>
      </trkpt>
      <trkpt lat="48.63398" lon="2.00171">
        <ele>140</ele>
        <time>2021-02-06T12:01:57Z</time>
      </trkpt>
      <trkpt lat="48.63401" lon="2.00159">
        <ele>140</ele>
        <time>2021-02-06T12:02:02Z</time>
      </trkpt>
      <trkpt lat="48.63439" lon="2.00145">
        <ele>141</ele>
        <time>2021-02-06T12:02:21Z</time>
      </trkpt>
      <trkpt lat="48.63461" lon="2.00141">
        <ele>141</ele>
        <time>2021-02-06T12:02:32Z</time>
      </trkpt>
      <trkpt lat="48.63484" lon="2.00142">
        <ele>142</ele>
        <time>2021-02-06T12:02:44Z</time>
      </trkpt>
      <trkpt lat="48.63498" lon="2.0014">
        <ele>143</ele>
        <time>2021-02-06T12:02:51Z</time>
      </trkpt>
      <trkpt lat="48.63524" lon="2.00146">
        <ele>145</ele>
        <time>2021-02-06T12:03:04Z</time>
      </trkpt>
      <trkpt lat="48.63556" lon="2.00127">
        <ele>146</ele>
        <time>2021-02-06T12:03:21Z</time>
      </trkpt>
      <trkpt lat="48.63566" lon="2.00126">
        <ele>147</ele>
        <time>2021-02-06T12:03:26Z</time>
      </trkpt>
      <trkpt lat="48.63569" lon="2.00121">
        <ele>147</ele>
        <time>2021-02-06T12:03:28Z</time>
      </trkpt>
      <trkpt lat="48.63565" lon="2.00102">
        <ele>145</ele>
        <time>2021-02-06T12:03:35Z</time>
      </trkpt>
      <trkpt lat="48.63552" lon="2.00086">
        <ele>143</ele>
        <time>2021-02-06T12:03:43Z</time>
      </trkpt>
      <trkpt lat="48.63523" lon="2.0007">
        <ele>141</ele>
        <time>2021-02-06T12:03:59Z</time>
      </trkpt>
      <trkpt lat="48.63489" lon="2.00043">
        <ele>139</ele>
        <time>2021-02-06T12:04:18Z</time>
      </trkpt>
      <trkpt lat="48.63386" lon="2.00015">
        <ele>135</ele>
        <time>2021-02-06T12:05:11Z</time>
      </trkpt>
      <trkpt lat="48.63362" lon="2.00004">
        <ele>135</ele>
        <time>2021-02-06T12:05:23Z</time>
      </trkpt>
      <trkpt lat="48.63345" lon="2">
        <ele>135</ele>
        <time>2021-02-06T12:05:32Z</time>
      </trkpt>
      <trkpt lat="48.63336" lon="1.9999">
        <ele>136</ele>
        <time>2021-02-06T12:05:37Z</time>
      </trkpt>
      <trkpt lat="48.63333" lon="1.9998">
        <ele>136</ele>
        <time>2021-02-06T12:05:41Z</time>
      </trkpt>
      <trkpt lat="48.63338" lon="1.99872">
        <ele>143</ele>
        <time>2021-02-06T12:06:17Z</time>
      </trkpt>
      <trkpt lat="48.63343" lon="1.99829">
        <ele>146</ele>
        <time>2021-02-06T12:06:31Z</time>
      </trkpt>
      <trkpt lat="48.63348" lon="1.99733">
        <ele>150</ele>
        <time>2021-02-06T12:07:03Z</time>
      </trkpt>
      <trkpt lat="48.63346" lon="1.99693">
        <ele>150</ele>
        <time>2021-02-06T12:07:16Z</time>
      </trkpt>
      <trkpt lat="48.63353" lon="1.9967">
        <ele>150</ele>
        <time>2021-02-06T12:07:25Z</time>
      </trkpt>
      <trkpt lat="48.63359" lon="1.99629">
        <ele>150</ele>
        <time>2021-02-06T12:07:39Z</time>
      </trkpt>
      <trkpt lat="48.63359" lon="1.99591">
        <ele>150</ele>
        <time>2021-02-06T12:07:51Z</time>
      </trkpt>
      <trkpt lat="48.63353" lon="1.99565">
        <ele>149</ele>
        <time>2021-02-06T12:08:00Z</time>
      </trkpt>
      <trkpt lat="48.63347" lon="1.99552">
        <ele>148</ele>
        <time>2021-02-06T12:08:05Z</time>
      </trkpt>
      <trkpt lat="48.63336" lon="1.99541">
        <ele>147</ele>
        <time>2021-02-06T12:08:12Z</time>
      </trkpt>
      <trkpt lat="48.63324" lon="1.99519">
        <ele>146</ele>
        <time>2021-02-06T12:08:21Z</time>
      </trkpt>
      <trkpt lat="48.63313" lon="1.9951">
        <ele>145</ele>
        <time>2021-02-06T12:08:28Z</time>
      </trkpt>
      <trkpt lat="48.63304" lon="1.99507">
        <ele>144</ele>
        <time>2021-02-06T12:08:32Z</time>
      </trkpt>
      <trkpt lat="48.633" lon="1.99498">
        <ele>144</ele>
        <time>2021-02-06T12:08:36Z</time>
      </trkpt>
      <trkpt lat="48.63315" lon="1.99445">
        <ele>145</ele>
        <time>2021-02-06T12:08:55Z</time>
      </trkpt>
      <trkpt lat="48.63319" lon="1.99435">
        <ele>145</ele>
        <time>2021-02-06T12:08:59Z</time>
      </trkpt>
      <trkpt lat="48.63327" lon="1.99425">
        <ele>146</ele>
        <time>2021-02-06T12:09:04Z</time>
      </trkpt>
      <trkpt lat="48.63342" lon="1.99421">
        <ele>147</ele>
        <time>2021-02-06T12:09:12Z</time>
      </trkpt>
      <trkpt lat="48.63373" lon="1.99398">
        <ele>150</ele>
        <time>2021-02-06T12:09:29Z</time>
      </trkpt>
      <trkpt lat="48.63383" lon="1.99394">
        <ele>151</ele>
        <time>2021-02-06T12:09:34Z</time>
      </trkpt>
      <trkpt lat="48.63417" lon="1.99369">
        <ele>154</ele>
        <time>2021-02-06T12:09:53Z</time>
      </trkpt>
      <trkpt lat="48.63431" lon="1.99356">
        <ele>156</ele>
        <time>2021-02-06T12:10:01Z</time>
      </trkpt>
      <trkpt lat="48.63502" lon="1.99309">
        <ele>169</ele>
        <time>2021-02-06T12:10:40Z</time>
      </trkpt>
      <trkpt lat="48.63504" lon="1.99304">
        <ele>169</ele>
        <time>2021-02-06T12:10:42Z</time>
      </trkpt>
      <trkpt lat="48.63505" lon="1.99275">
        <ele>170</ele>
        <time>2021-02-06T12:10:52Z</time>
      </trkpt>
      <trkpt lat="48.635" lon="1.9927">
        <ele>169</ele>
        <time>2021-02-06T12:10:55Z</time>
      </trkpt>
      <trkpt lat="48.63487" lon="1.99246">
        <ele>166</ele>
        <time>2021-02-06T12:11:05Z</time>
      </trkpt>
      <trkpt lat="48.63466" lon="1.99198">
        <ele>160</ele>
        <time>2021-02-06T12:11:24Z</time>
      </trkpt>
      <trkpt lat="48.63454" lon="1.99177">
        <ele>157</ele>
        <time>2021-02-06T12:11:33Z</time>
      </trkpt>
      <trkpt lat="48.6344" lon="1.9916">
        <ele>154</ele>
        <time>2021-02-06T12:11:42Z</time>
      </trkpt>
      <trkpt lat="48.63424" lon="1.99126">
        <ele>150</ele>
        <time>2021-02-06T12:11:56Z</time>
      </trkpt>
      <trkpt lat="48.6341" lon="1.99077">
        <ele>148</ele>
        <time>2021-02-06T12:12:13Z</time>
      </trkpt>
      <trkpt lat="48.63394" lon="1.99045">
        <ele>145</ele>
        <time>2021-02-06T12:12:27Z</time>
      </trkpt>
      <trkpt lat="48.63393" lon="1.99031">
        <ele>145</ele>
        <time>2021-02-06T12:12:31Z</time>
      </trkpt>
      <trkpt lat="48.63407" lon="1.98977">
        <ele>145</ele>
        <time>2021-02-06T12:12:51Z</time>
      </trkpt>
      <trkpt lat="48.63416" lon="1.98952">
        <ele>145</ele>
        <time>2021-02-06T12:13:00Z</time>
      </trkpt>
      <trkpt lat="48.63418" lon="1.98928">
        <ele>144</ele>
        <time>2021-02-06T12:13:08Z</time>
      </trkpt>
      <trkpt lat="48.63416" lon="1.98881">
        <ele>140</ele>
        <time>2021-02-06T12:13:24Z</time>
      </trkpt>
      <trkpt lat="48.63418" lon="1.98849">
        <ele>137</ele>
        <time>2021-02-06T12:13:34Z</time>
      </trkpt>
      <trkpt lat="48.63411" lon="1.98837">
        <ele>136</ele>
        <time>2021-02-06T12:13:40Z</time>
      </trkpt>
      <trkpt lat="48.6341" lon="1.98827">
        <ele>135</ele>
        <time>2021-02-06T12:13:43Z</time>
      </trkpt>
      <trkpt lat="48.63412" lon="1.98813">
        <ele>134</ele>
        <time>2021-02-06T12:13:48Z</time>
      </trkpt>
      <trkpt lat="48.63417" lon="1.988">
        <ele>134</ele>
        <time>2021-02-06T12:13:53Z</time>
      </trkpt>
      <trkpt lat="48.63417" lon="1.9879">
        <ele>133</ele>
        <time>2021-02-06T12:13:56Z</time>
      </trkpt>
      <trkpt lat="48.63407" lon="1.98757">
        <ele>131</ele>
        <time>2021-02-06T12:14:08Z</time>
      </trkpt>
      <trkpt lat="48.63407" lon="1.98747">
        <ele>130</ele>
        <time>2021-02-06T12:14:11Z</time>
      </trkpt>
      <trkpt lat="48.63411" lon="1.9874">
        <ele>131</ele>
        <time>2021-02-06T12:14:14Z</time>
      </trkpt>
      <trkpt lat="48.63415" lon="1.98738">
        <ele>131</ele>
        <time>2021-02-06T12:14:16Z</time>
      </trkpt>
      <trkpt lat="48.63425" lon="1.9874">
        <ele>132</ele>
        <time>2021-02-06T12:14:21Z</time>
      </trkpt>
      <trkpt lat="48.63427" lon="1.98735">
        <ele>132</ele>
        <time>2021-02-06T12:14:23Z</time>
      </trkpt>
      <trkpt lat="48.63459" lon="1.98581">
        <ele>140</ele>
        <time>2021-02-06T12:15:17Z</time>
      </trkpt>
      <trkpt lat="48.63499" lon="1.98438">
        <ele>150</ele>
        <time>2021-02-06T12:16:08Z</time>
      </trkpt>
      <trkpt lat="48.63501" lon="1.98418">
        <ele>150</ele>
        <time>2021-02-06T12:16:15Z</time>
      </trkpt>
      <trkpt lat="48.63508" lon="1.98401">
        <ele>151</ele>
        <time>2021-02-06T12:16:21Z</time>
      </trkpt>
      <trkpt lat="48.63511" lon="1.98338">
        <ele>150</ele>
        <time>2021-02-06T12:16:42Z</time>
      </trkpt>
      <trkpt lat="48.63508" lon="1.98331">
        <ele>149</ele>
        <time>2021-02-06T12:16:45Z</time>
      </trkpt>
      <trkpt lat="48.63504" lon="1.98325">
        <ele>149</ele>
        <time>2021-02-06T12:16:48Z</time>
      </trkpt>
      <trkpt lat="48.6349" lon="1.98316">
        <ele>147</ele>
        <time>2021-02-06T12:16:55Z</time>
      </trkpt>
      <trkpt lat="48.63479" lon="1.98312">
        <ele>145</ele>
        <time>2021-02-06T12:17:01Z</time>
      </trkpt>
      <trkpt lat="48.63468" lon="1.98312">
        <ele>144</ele>
        <time>2021-02-06T12:17:07Z</time>
      </trkpt>
      <trkpt lat="48.63455" lon="1.98315">
        <ele>143</ele>
        <time>2021-02-06T12:17:13Z</time>
      </trkpt>
      <trkpt lat="48.63419" lon="1.98331">
        <ele>140</ele>
        <time>2021-02-06T12:17:32Z</time>
      </trkpt>
      <trkpt lat="48.63398" lon="1.98344">
        <ele>139</ele>
        <time>2021-02-06T12:17:43Z</time>
      </trkpt>
      <trkpt lat="48.6337" lon="1.98389">
        <ele>136</ele>
        <time>2021-02-06T12:18:04Z</time>
      </trkpt>
      <trkpt lat="48.63351" lon="1.98449">
        <ele>134</ele>
        <time>2021-02-06T12:18:26Z</time>
      </trkpt>
      <trkpt lat="48.63336" lon="1.98482">
        <ele>132</ele>
        <time>2021-02-06T12:18:39Z</time>
      </trkpt>
      <trkpt lat="48.63324" lon="1.98491">
        <ele>131</ele>
        <time>2021-02-06T12:18:46Z</time>
      </trkpt>
      <trkpt lat="48.63305" lon="1.98492">
        <ele>129</ele>
        <time>2021-02-06T12:18:55Z</time>
      </trkpt>
      <trkpt lat="48.63296" lon="1.98495">
        <ele>128</ele>
        <time>2021-02-06T12:19:00Z</time>
      </trkpt>
      <trkpt lat="48.63276" lon="1.98467">
        <ele>126</ele>
        <time>2021-02-06T12:19:14Z</time>
      </trkpt>
      <trkpt lat="48.63272" lon="1.9843">
        <ele>127</ele>
        <time>2021-02-06T12:19:26Z</time>
      </trkpt>
      <trkpt lat="48.63271" lon="1.98347">
        <ele>128</ele>
        <time>2021-02-06T12:19:53Z</time>
      </trkpt>
      <trkpt lat="48.63269" lon="1.98342">
        <ele>128</ele>
        <time>2021-02-06T12:19:55Z</time>
      </trkpt>
      <trkpt lat="48.63259" lon="1.98331">
        <ele>128</ele>
        <time>2021-02-06T12:20:01Z</time>
      </trkpt>
      <trkpt lat="48.63242" lon="1.98326">
        <ele>126</ele>
        <time>2021-02-06T12:20:10Z</time>
      </trkpt>
      <trkpt lat="48.63229" lon="1.98315">
        <ele>125</ele>
        <time>2021-02-06T12:20:18Z</time>
      </trkpt>
      <trkpt lat="48.63197" lon="1.98297">
        <ele>121</ele>
        <time>2021-02-06T12:20:35Z</time>
      </trkpt>
      <trkpt lat="48.63183" lon="1.98292">
        <ele>120</ele>
        <time>2021-02-06T12:20:42Z</time>
      </trkpt>
      <trkpt lat="48.63174" lon="1.98298">
        <ele>119</ele>
        <time>2021-02-06T12:20:47Z</time>
      </trkpt>
      <trkpt lat="48.63163" lon="1.983">
        <ele>119</ele>
        <time>2021-02-06T12:20:52Z</time>
      </trkpt>
      <trkpt lat="48.63145" lon="1.98321">
        <ele>118</ele>
        <time>2021-02-06T12:21:04Z</time>
      </trkpt>
      <trkpt lat="48.63133" lon="1.98308">
        <ele>118</ele>
        <time>2021-02-06T12:21:11Z</time>
      </trkpt>
      <trkpt lat="48.63114" lon="1.98311">
        <ele>117</ele>
        <time>2021-02-06T12:21:21Z</time>
      </trkpt>
      <trkpt lat="48.63086" lon="1.98329">
        <ele>116</ele>
        <time>2021-02-06T12:21:36Z</time>
      </trkpt>
      <trkpt lat="48.63076" lon="1.98332">
        <ele>116</ele>
        <time>2021-02-06T12:21:41Z</time>
      </trkpt>
      <trkpt lat="48.63048" lon="1.98353">
        <ele>115</ele>
        <time>2021-02-06T12:21:57Z</time>
      </trkpt>
      <trkpt lat="48.63042" lon="1.98361">
        <ele>114</ele>
        <time>2021-02-06T12:22:01Z</time>
      </trkpt>
      <trkpt lat="48.63043" lon="1.98381">
        <ele>114</ele>
        <time>2021-02-06T12:22:07Z</time>
      </trkpt>
      <trkpt lat="48.63038" lon="1.98381">
        <ele>114</ele>
        <time>2021-02-06T12:22:10Z</time>
      </trkpt>
      <trkpt lat="48.6303" lon="1.98369">
        <ele>114</ele>
        <time>2021-02-06T12:22:15Z</time>
      </trkpt>
      <trkpt lat="48.63021" lon="1.98336">
        <ele>114</ele>
        <time>2021-02-06T12:22:27Z</time>
      </trkpt>
      <trkpt lat="48.6302" lon="1.98324">
        <ele>115</ele>
        <time>2021-02-06T12:22:31Z</time>
      </trkpt>
      <trkpt lat="48.63024" lon="1.98284">
        <ele>116</ele>
        <time>2021-02-06T12:22:45Z</time>
      </trkpt>
      <trkpt lat="48.63024" lon="1.98209">
        <ele>118</ele>
        <time>2021-02-06T12:23:09Z</time>
      </trkpt>
      <trkpt lat="48.63019" lon="1.98177">
        <ele>119</ele>
        <time>2021-02-06T12:23:20Z</time>
      </trkpt>
      <trkpt lat="48.62999" lon="1.98146">
        <ele>120</ele>
        <time>2021-02-06T12:23:35Z</time>
      </trkpt>
      <trkpt lat="48.62991" lon="1.98124">
        <ele>120</ele>
        <time>2021-02-06T12:23:43Z</time>
      </trkpt>
      <trkpt lat="48.62982" lon="1.98087">
        <ele>121</ele>
        <time>2021-02-06T12:23:56Z</time>
      </trkpt>
      <trkpt lat="48.62973" lon="1.98066">
        <ele>120</ele>
        <time>2021-02-06T12:24:04Z</time>
      </trkpt>
      <trkpt lat="48.62965" lon="1.98054">
        <ele>120</ele>
        <time>2021-02-06T12:24:10Z</time>
      </trkpt>
      <trkpt lat="48.62947" lon="1.98038">
        <ele>120</ele>
        <time>2021-02-06T12:24:20Z</time>
      </trkpt>
      <trkpt lat="48.62907" lon="1.98017">
        <ele>121</ele>
        <time>2021-02-06T12:24:41Z</time>
      </trkpt>
      <trkpt lat="48.62903" lon="1.98008">
        <ele>122</ele>
        <time>2021-02-06T12:24:45Z</time>
      </trkpt>
      <trkpt lat="48.62912" lon="1.9794">
        <ele>124</ele>
        <time>2021-02-06T12:25:08Z</time>
      </trkpt>
      <trkpt lat="48.62933" lon="1.97835">
        <ele>124</ele>
        <time>2021-02-06T12:25:44Z</time>
      </trkpt>
      <trkpt lat="48.62948" lon="1.97729">
        <ele>126</ele>
        <time>2021-02-06T12:26:20Z</time>
      </trkpt>
      <trkpt lat="48.62949" lon="1.97708">
        <ele>126</ele>
        <time>2021-02-06T12:26:27Z</time>
      </trkpt>
      <trkpt lat="48.62963" lon="1.97638">
        <ele>124</ele>
        <time>2021-02-06T12:26:51Z</time>
      </trkpt>
      <trkpt lat="48.62967" lon="1.97598">
        <ele>123</ele>
        <time>2021-02-06T12:27:05Z</time>
      </trkpt>
      <trkpt lat="48.62967" lon="1.97584">
        <ele>122</ele>
        <time>2021-02-06T12:27:09Z</time>
      </trkpt>
      <trkpt lat="48.62961" lon="1.97549">
        <ele>122</ele>
        <time>2021-02-06T12:27:21Z</time>
      </trkpt>
      <trkpt lat="48.62963" lon="1.97493">
        <ele>122</ele>
        <time>2021-02-06T12:27:40Z</time>
      </trkpt>
      <trkpt lat="48.62968" lon="1.97468">
        <ele>123</ele>
        <time>2021-02-06T12:27:48Z</time>
      </trkpt>
      <trkpt lat="48.62969" lon="1.9736">
        <ele>127</ele>
        <time>2021-02-06T12:28:24Z</time>
      </trkpt>
      <trkpt lat="48.62971" lon="1.97348">
        <ele>128</ele>
        <time>2021-02-06T12:28:28Z</time>
      </trkpt>
      <trkpt lat="48.62983" lon="1.97332">
        <ele>127</ele>
        <time>2021-02-06T12:28:36Z</time>
      </trkpt>
      <trkpt lat="48.62993" lon="1.97266">
        <ele>127</ele>
        <time>2021-02-06T12:28:59Z</time>
      </trkpt>
      <trkpt lat="48.62992" lon="1.97251">
        <ele>128</ele>
        <time>2021-02-06T12:29:04Z</time>
      </trkpt>
      <trkpt lat="48.62985" lon="1.97221">
        <ele>127</ele>
        <time>2021-02-06T12:29:14Z</time>
      </trkpt>
      <trkpt lat="48.62978" lon="1.9721">
        <ele>128</ele>
        <time>2021-02-06T12:29:19Z</time>
      </trkpt>
      <trkpt lat="48.62964" lon="1.972">
        <ele>129</ele>
        <time>2021-02-06T12:29:27Z</time>
      </trkpt>
      <trkpt lat="48.62953" lon="1.97197">
        <ele>130</ele>
        <time>2021-02-06T12:29:33Z</time>
      </trkpt>
      <trkpt lat="48.62932" lon="1.97198">
        <ele>132</ele>
        <time>2021-02-06T12:29:43Z</time>
      </trkpt>
      <trkpt lat="48.62901" lon="1.97195">
        <ele>134</ele>
        <time>2021-02-06T12:29:59Z</time>
      </trkpt>
      <trkpt lat="48.62852" lon="1.97208">
        <ele>137</ele>
        <time>2021-02-06T12:30:24Z</time>
      </trkpt>
      <trkpt lat="48.62818" lon="1.97209">
        <ele>139</ele>
        <time>2021-02-06T12:30:41Z</time>
      </trkpt>
      <trkpt lat="48.62783" lon="1.97199">
        <ele>142</ele>
        <time>2021-02-06T12:30:58Z</time>
      </trkpt>
      <trkpt lat="48.62769" lon="1.97192">
        <ele>143</ele>
        <time>2021-02-06T12:31:06Z</time>
      </trkpt>
      <trkpt lat="48.62727" lon="1.97156">
        <ele>146</ele>
        <time>2021-02-06T12:31:30Z</time>
      </trkpt>
      <trkpt lat="48.62706" lon="1.97144">
        <ele>147</ele>
        <time>2021-02-06T12:31:41Z</time>
      </trkpt>
      <trkpt lat="48.62626" lon="1.97138">
        <ele>149</ele>
        <time>2021-02-06T12:32:21Z</time>
      </trkpt>
      <trkpt lat="48.62566" lon="1.97123">
        <ele>149</ele>
        <time>2021-02-06T12:32:52Z</time>
      </trkpt>
      <trkpt lat="48.62518" lon="1.97116">
        <ele>147</ele>
        <time>2021-02-06T12:33:16Z</time>
      </trkpt>
      <trkpt lat="48.62481" lon="1.97099">
        <ele>148</ele>
        <time>2021-02-06T12:33:35Z</time>
      </trkpt>
      <trkpt lat="48.62452" lon="1.9709">
        <ele>148</ele>
        <time>2021-02-06T12:33:50Z</time>
      </trkpt>
      <trkpt lat="48.62418" lon="1.97089">
        <ele>148</ele>
        <time>2021-02-06T12:34:07Z</time>
      </trkpt>
      <trkpt lat="48.62404" lon="1.97091">
        <ele>147</ele>
        <time>2021-02-06T12:34:14Z</time>
      </trkpt>
      <trkpt lat="48.62349" lon="1.97108">
        <ele>144</ele>
        <time>2021-02-06T12:34:42Z</time>
      </trkpt>
      <trkpt lat="48.62321" lon="1.97105">
        <ele>142</ele>
        <time>2021-02-06T12:34:56Z</time>
      </trkpt>
      <trkpt lat="48.62291" lon="1.97081">
        <ele>139</ele>
        <time>2021-02-06T12:35:13Z</time>
      </trkpt>
      <trkpt lat="48.62251" lon="1.97056">
        <ele>134</ele>
        <time>2021-02-06T12:35:35Z</time>
      </trkpt>
      <trkpt lat="48.62222" lon="1.97017">
        <ele>132</ele>
        <time>2021-02-06T12:35:54Z</time>
      </trkpt>
      <trkpt lat="48.62204" lon="1.9701">
        <ele>132</ele>
        <time>2021-02-06T12:36:04Z</time>
      </trkpt>
      <trkpt lat="48.62183" lon="1.96997">
        <ele>131</ele>
        <time>2021-02-06T12:36:15Z</time>
      </trkpt>
      <trkpt lat="48.62151" lon="1.96982">
        <ele>131</ele>
        <time>2021-02-06T12:36:32Z</time>
      </trkpt>
      <trkpt lat="48.62121" lon="1.96983">
        <ele>131</ele>
        <time>2021-02-06T12:36:47Z</time>
      </trkpt>
      <trkpt lat="48.62108" lon="1.96989">
        <ele>130</ele>
        <time>2021-02-06T12:36:53Z</time>
      </trkpt>
      <trkpt lat="48.62082" lon="1.97006">
        <ele>128</ele>
        <time>2021-02-06T12:37:08Z</time>
      </trkpt>
      <trkpt lat="48.62032" lon="1.97051">
        <ele>127</ele>
        <time>2021-02-06T12:37:37Z</time>
      </trkpt>
      <trkpt lat="48.62011" lon="1.97061">
        <ele>126</ele>
        <time>2021-02-06T12:37:48Z</time>
      </trkpt>
      <trkpt lat="48.61983" lon="1.97069">
        <ele>125</ele>
        <time>2021-02-06T12:38:02Z</time>
      </trkpt>
      <trkpt lat="48.61935" lon="1.97099">
        <ele>122</ele>
        <time>2021-02-06T12:38:28Z</time>
      </trkpt>
      <trkpt lat="48.61932" lon="1.97103">
        <ele>122</ele>
        <time>2021-02-06T12:38:30Z</time>
      </trkpt>
      <trkpt lat="48.61932" lon="1.97111">
        <ele>122</ele>
        <time>2021-02-06T12:38:33Z</time>
      </trkpt>
      <trkpt lat="48.61936" lon="1.97118">
        <ele>121</ele>
        <time>2021-02-06T12:38:36Z</time>
      </trkpt>
      <trkpt lat="48.61981" lon="1.9718">
        <ele>121</ele>
        <time>2021-02-06T12:39:06Z</time>
      </trkpt>
      <trkpt lat="48.62012" lon="1.9723">
        <ele>124</ele>
        <time>2021-02-06T12:39:29Z</time>
      </trkpt>
      <trkpt lat="48.62043" lon="1.97299">
        <ele>129</ele>
        <time>2021-02-06T12:39:56Z</time>
      </trkpt>
      <trkpt lat="48.62057" lon="1.97322">
        <ele>130</ele>
        <time>2021-02-06T12:40:07Z</time>
      </trkpt>
      <trkpt lat="48.62084" lon="1.97378">
        <ele>132</ele>
        <time>2021-02-06T12:40:30Z</time>
      </trkpt>
      <trkpt lat="48.62098" lon="1.97399">
        <ele>133</ele>
        <time>2021-02-06T12:40:40Z</time>
      </trkpt>
      <trkpt lat="48.62106" lon="1.97421">
        <ele>133</ele>
        <time>2021-02-06T12:40:48Z</time>
      </trkpt>
      <trkpt lat="48.62102" lon="1.97431">
        <ele>133</ele>
        <time>2021-02-06T12:40:52Z</time>
      </trkpt>
      <trkpt lat="48.62074" lon="1.9744">
        <ele>132</ele>
        <time>2021-02-06T12:41:06Z</time>
      </trkpt>
      <trkpt lat="48.62061" lon="1.97448">
        <ele>132</ele>
        <time>2021-02-06T12:41:13Z</time>
      </trkpt>
      <trkpt lat="48.61985" lon="1.97541">
        <ele>131</ele>
        <time>2021-02-06T12:42:02Z</time>
      </trkpt>
      <trkpt lat="48.61953" lon="1.9756">
        <ele>131</ele>
        <time>2021-02-06T12:42:19Z</time>
      </trkpt>
      <trkpt lat="48.61944" lon="1.97568">
        <ele>131</ele>
        <time>2021-02-06T12:42:24Z</time>
      </trkpt>
      <trkpt lat="48.61848" lon="1.97665">
        <ele>131</ele>
        <time>2021-02-06T12:43:22Z</time>
      </trkpt>
      <trkpt lat="48.6175" lon="1.97757">
        <ele>132</ele>
        <time>2021-02-06T12:44:20Z</time>
      </trkpt>
      <trkpt lat="48.6172" lon="1.97791">
        <ele>129</ele>
        <time>2021-02-06T12:44:39Z</time>
      </trkpt>
      <trkpt lat="48.61708" lon="1.97808">
        <ele>128</ele>
        <time>2021-02-06T12:44:47Z</time>
      </trkpt>
      <trkpt lat="48.61673" lon="1.97882">
        <ele>125</ele>
        <time>2021-02-06T12:45:17Z</time>
      </trkpt>
      <trkpt lat="48.61658" lon="1.97904">
        <ele>123</ele>
        <time>2021-02-06T12:45:27Z</time>
      </trkpt>
      <trkpt lat="48.61642" lon="1.97922">
        <ele>122</ele>
        <time>2021-02-06T12:45:37Z</time>
      </trkpt>
      <trkpt lat="48.61634" lon="1.97928">
        <ele>121</ele>
        <time>2021-02-06T12:45:42Z</time>
      </trkpt>
      <trkpt lat="48.61625" lon="1.97931">
        <ele>121</ele>
        <time>2021-02-06T12:45:47Z</time>
      </trkpt>
      <trkpt lat="48.61597" lon="1.97933">
        <ele>119</ele>
        <time>2021-02-06T12:46:01Z</time>
      </trkpt>
      <trkpt lat="48.61589" lon="1.97936">
        <ele>119</ele>
        <time>2021-02-06T12:46:05Z</time>
      </trkpt>
      <trkpt lat="48.61551" lon="1.97966">
        <ele>114</ele>
        <time>2021-02-06T12:46:26Z</time>
      </trkpt>
      <trkpt lat="48.61514" lon="1.98015">
        <ele>111</ele>
        <time>2021-02-06T12:46:51Z</time>
      </trkpt>
      <trkpt lat="48.61503" lon="1.98026">
        <ele>110</ele>
        <time>2021-02-06T12:46:57Z</time>
      </trkpt>
      <trkpt lat="48.61484" lon="1.98037">
        <ele>109</ele>
        <time>2021-02-06T12:47:08Z</time>
      </trkpt>
      <trkpt lat="48.61457" lon="1.98044">
        <ele>107</ele>
        <time>2021-02-06T12:47:21Z</time>
      </trkpt>
      <trkpt lat="48.61417" lon="1.98061">
        <ele>104</ele>
        <time>2021-02-06T12:47:42Z</time>
      </trkpt>
      <trkpt lat="48.61413" lon="1.98065">
        <ele>104</ele>
        <time>2021-02-06T12:47:44Z</time>
      </trkpt>
      <trkpt lat="48.61414" lon="1.98077">
        <ele>105</ele>
        <time>2021-02-06T12:47:48Z</time>
      </trkpt>
      <trkpt lat="48.61448" lon="1.98126">
        <ele>107</ele>
        <time>2021-02-06T12:48:12Z</time>
      </trkpt>
      <trkpt lat="48.61475" lon="1.98177">
        <ele>109</ele>
        <time>2021-02-06T12:48:34Z</time>
      </trkpt>
      <trkpt lat="48.6148" lon="1.98194">
        <ele>108</ele>
        <time>2021-02-06T12:48:40Z</time>
      </trkpt>
      <trkpt lat="48.61437" lon="1.98282">
        <ele>102</ele>
        <time>2021-02-06T12:49:16Z</time>
      </trkpt>
      <trkpt lat="48.61335" lon="1.98471">
        <ele>96</ele>
        <time>2021-02-06T12:50:37Z</time>
      </trkpt>
      <trkpt lat="48.61329" lon="1.98491">
        <ele>96</ele>
        <time>2021-02-06T12:50:44Z</time>
      </trkpt>
      <trkpt lat="48.61326" lon="1.98514">
        <ele>96</ele>
        <time>2021-02-06T12:50:52Z</time>
      </trkpt>
      <trkpt lat="48.61321" lon="1.98574">
        <ele>98</ele>
        <time>2021-02-06T12:51:12Z</time>
      </trkpt>
      <trkpt lat="48.61321" lon="1.986">
        <ele>98</ele>
        <time>2021-02-06T12:51:20Z</time>
      </trkpt>
      <trkpt lat="48.61329" lon="1.98636">
        <ele>99</ele>
        <time>2021-02-06T12:51:33Z</time>
      </trkpt>
      <trkpt lat="48.61342" lon="1.9866">
        <ele>99</ele>
        <time>2021-02-06T12:51:43Z</time>
      </trkpt>
      <trkpt lat="48.61345" lon="1.98672">
        <ele>99</ele>
        <time>2021-02-06T12:51:47Z</time>
      </trkpt>
      <trkpt lat="48.61339" lon="1.98722">
        <ele>101</ele>
        <time>2021-02-06T12:52:04Z</time>
      </trkpt>
      <trkpt lat="48.61342" lon="1.98745">
        <ele>102</ele>
        <time>2021-02-06T12:52:12Z</time>
      </trkpt>
      <trkpt lat="48.61349" lon="1.98755">
        <ele>103</ele>
        <time>2021-02-06T12:52:17Z</time>
      </trkpt>
      <trkpt lat="48.61372" lon="1.98768">
        <ele>104</ele>
        <time>2021-02-06T12:52:29Z</time>
      </trkpt>
      <trkpt lat="48.61391" lon="1.98786">
        <ele>105</ele>
        <time>2021-02-06T12:52:40Z</time>
      </trkpt>
      <trkpt lat="48.61403" lon="1.9881">
        <ele>106</ele>
        <time>2021-02-06T12:52:50Z</time>
      </trkpt>
      <trkpt lat="48.61408" lon="1.98836">
        <ele>107</ele>
        <time>2021-02-06T12:52:59Z</time>
      </trkpt>
      <trkpt lat="48.61409" lon="1.98889">
        <ele>110</ele>
        <time>2021-02-06T12:53:17Z</time>
      </trkpt>
      <trkpt lat="48.61405" lon="1.98998">
        <ele>115</ele>
        <time>2021-02-06T12:53:53Z</time>
      </trkpt>
      <trkpt lat="48.61401" lon="1.99039">
        <ele>117</ele>
        <time>2021-02-06T12:54:07Z</time>
      </trkpt>
      <trkpt lat="48.61402" lon="1.99067">
        <ele>119</ele>
        <time>2021-02-06T12:54:16Z</time>
      </trkpt>
      <trkpt lat="48.61411" lon="1.99121">
        <ele>121</ele>
        <time>2021-02-06T12:54:34Z</time>
      </trkpt>
      <trkpt lat="48.61442" lon="1.99233">
        <ele>124</ele>
        <time>2021-02-06T12:55:14Z</time>
      </trkpt>
      <trkpt lat="48.61462" lon="1.99386">
        <ele>128</ele>
        <time>2021-02-06T12:56:06Z</time>
      </trkpt>
      <trkpt lat="48.61475" lon="1.99562">
        <ele>129</ele>
        <time>2021-02-06T12:57:05Z</time>
      </trkpt>
      <trkpt lat="48.61492" lon="1.99723">
        <ele>125</ele>
        <time>2021-02-06T12:57:59Z</time>
      </trkpt>
      <trkpt lat="48.61498" lon="1.99881">
        <ele>121</ele>
        <time>2021-02-06T12:58:51Z</time>
      </trkpt>
      <trkpt lat="48.61493" lon="1.99902">
        <ele>121</ele>
        <time>2021-02-06T12:58:58Z</time>
      </trkpt>
      <trkpt lat="48.61483" lon="1.99913">
        <ele>122</ele>
        <time>2021-02-06T12:59:04Z</time>
      </trkpt>
      <trkpt lat="48.61479" lon="1.99925">
        <ele>123</ele>
        <time>2021-02-06T12:59:09Z</time>
      </trkpt>
      <trkpt lat="48.61474" lon="1.9993">
        <ele>123</ele>
        <time>2021-02-06T12:59:12Z</time>
      </trkpt>
      <trkpt lat="48.61464" lon="1.99932">
        <ele>124</ele>
        <time>2021-02-06T12:59:17Z</time>
      </trkpt>
      <trkpt lat="48.61446" lon="1.99927">
        <ele>126</ele>
        <time>2021-02-06T12:59:26Z</time>
      </trkpt>
      <trkpt lat="48.6144" lon="1.9993">
        <ele>126</ele>
        <time>2021-02-06T12:59:29Z</time>
      </trkpt>
      <trkpt lat="48.61409" lon="1.9998">
        <ele>128</ele>
        <time>2021-02-06T12:59:52Z</time>
      </trkpt>
      <trkpt lat="48.61377" lon="2.00014">
        <ele>129</ele>
        <time>2021-02-06T13:00:12Z</time>
      </trkpt>
      <trkpt lat="48.6137" lon="2.00025">
        <ele>130</ele>
        <time>2021-02-06T13:00:17Z</time>
      </trkpt>
      <trkpt lat="48.61355" lon="2.0004">
        <ele>131</ele>
        <time>2021-02-06T13:00:26Z</time>
      </trkpt>
      <trkpt lat="48.61348" lon="2.00041">
        <ele>131</ele>
        <time>2021-02-06T13:00:29Z</time>
      </trkpt>
      <trkpt lat="48.61331" lon="2.00023">
        <ele>131</ele>
        <time>2021-02-06T13:00:39Z</time>
      </trkpt>
      <trkpt lat="48.61302" lon="2.00006">
        <ele>131</ele>
        <time>2021-02-06T13:00:55Z</time>
      </trkpt>
      <trkpt lat="48.61266" lon="1.99976">
        <ele>130</ele>
        <time>2021-02-06T13:01:16Z</time>
      </trkpt>
      <trkpt lat="48.61238" lon="1.99936">
        <ele>128</ele>
        <time>2021-02-06T13:01:35Z</time>
      </trkpt>
      <trkpt lat="48.6122" lon="1.99923">
        <ele>128</ele>
        <time>2021-02-06T13:01:45Z</time>
      </trkpt>
      <trkpt lat="48.61207" lon="1.99909">
        <ele>128</ele>
        <time>2021-02-06T13:01:53Z</time>
      </trkpt>
      <trkpt lat="48.61175" lon="1.99889">
        <ele>128</ele>
        <time>2021-02-06T13:02:10Z</time>
      </trkpt>
      <trkpt lat="48.61167" lon="1.99881">
        <ele>127</ele>
        <time>2021-02-06T13:02:15Z</time>
      </trkpt>
      <trkpt lat="48.61137" lon="1.99868">
        <ele>127</ele>
        <time>2021-02-06T13:02:31Z</time>
      </trkpt>
      <trkpt lat="48.6108" lon="1.99852">
        <ele>127</ele>
        <time>2021-02-06T13:03:00Z</time>
      </trkpt>
      <trkpt lat="48.6107" lon="1.99843">
        <ele>126</ele>
        <time>2021-02-06T13:03:05Z</time>
      </trkpt>
      <trkpt lat="48.61056" lon="1.99838">
        <ele>126</ele>
        <time>2021-02-06T13:03:13Z</time>
      </trkpt>
      <trkpt lat="48.61022" lon="1.99827">
        <ele>125</ele>
        <time>2021-02-06T13:03:30Z</time>
      </trkpt>
      <trkpt lat="48.60991" lon="1.99823">
        <ele>125</ele>
        <time>2021-02-06T13:03:46Z</time>
      </trkpt>
      <trkpt lat="48.60979" lon="1.99827">
        <ele>125</ele>
        <time>2021-02-06T13:03:52Z</time>
      </trkpt>
      <trkpt lat="48.60958" lon="1.9984">
        <ele>127</ele>
        <time>2021-02-06T13:04:03Z</time>
      </trkpt>
      <trkpt lat="48.60948" lon="1.99849">
        <ele>128</ele>
        <time>2021-02-06T13:04:09Z</time>
      </trkpt>
      <trkpt lat="48.60939" lon="1.9985">
        <ele>128</ele>
        <time>2021-02-06T13:04:13Z</time>
      </trkpt>
      <trkpt lat="48.60921" lon="1.99845">
        <ele>128</ele>
        <time>2021-02-06T13:04:23Z</time>
      </trkpt>
      <trkpt lat="48.60891" lon="1.99829">
        <ele>128</ele>
        <time>2021-02-06T13:04:39Z</time>
      </trkpt>
      <trkpt lat="48.60867" lon="1.99821">
        <ele>128</ele>
        <time>2021-02-06T13:04:51Z</time>
      </trkpt>
      <trkpt lat="48.60838" lon="1.99801">
        <ele>127</ele>
        <time>2021-02-06T13:05:07Z</time>
      </trkpt>
      <trkpt lat="48.60791" lon="1.99785">
        <ele>125</ele>
        <time>2021-02-06T13:05:31Z</time>
      </trkpt>
      <trkpt lat="48.60755" lon="1.99781">
        <ele>125</ele>
        <time>2021-02-06T13:05:49Z</time>
      </trkpt>
      <trkpt lat="48.60708" lon="1.99783">
        <ele>124</ele>
        <time>2021-02-06T13:06:12Z</time>
      </trkpt>
      <trkpt lat="48.60692" lon="1.99781">
        <ele>124</ele>
        <time>2021-02-06T13:06:20Z</time>
      </trkpt>
      <trkpt lat="48.60669" lon="1.99784">
        <ele>124</ele>
        <time>2021-02-06T13:06:32Z</time>
      </trkpt>
      <trkpt lat="48.60663" lon="1.99781">
        <ele>123</ele>
        <time>2021-02-06T13:06:35Z</time>
      </trkpt>
      <trkpt lat="48.60655" lon="1.99771">
        <ele>122</ele>
        <time>2021-02-06T13:06:40Z</time>
      </trkpt>
      <trkpt lat="48.60647" lon="1.99767">
        <ele>122</ele>
        <time>2021-02-06T13:06:45Z</time>
      </trkpt>
      <trkpt lat="48.60622" lon="1.99769">
        <ele>120</ele>
        <time>2021-02-06T13:06:57Z</time>
      </trkpt>
      <trkpt lat="48.60596" lon="1.99768">
        <ele>118</ele>
        <time>2021-02-06T13:07:10Z</time>
      </trkpt>
      <trkpt lat="48.60567" lon="1.99776">
        <ele>117</ele>
        <time>2021-02-06T13:07:25Z</time>
      </trkpt>
      <trkpt lat="48.60552" lon="1.99776">
        <ele>116</ele>
        <time>2021-02-06T13:07:32Z</time>
      </trkpt>
      <trkpt lat="48.60539" lon="1.99789">
        <ele>116</ele>
        <time>2021-02-06T13:07:40Z</time>
      </trkpt>
      <trkpt lat="48.60532" lon="1.998">
        <ele>116</ele>
        <time>2021-02-06T13:07:45Z</time>
      </trkpt>
      <trkpt lat="48.60516" lon="1.99839">
        <ele>115</ele>
        <time>2021-02-06T13:08:00Z</time>
      </trkpt>
      <trkpt lat="48.60512" lon="1.99871">
        <ele>114</ele>
        <time>2021-02-06T13:08:11Z</time>
      </trkpt>
      <trkpt lat="48.60495" lon="1.99935">
        <ele>113</ele>
        <time>2021-02-06T13:08:34Z</time>
      </trkpt>
      <trkpt lat="48.60466" lon="1.99984">
        <ele>115</ele>
        <time>2021-02-06T13:08:56Z</time>
      </trkpt>
      <trkpt lat="48.60447" lon="2.0001">
        <ele>115</ele>
        <time>2021-02-06T13:09:09Z</time>
      </trkpt>
      <trkpt lat="48.6043" lon="2.00044">
        <ele>115</ele>
        <time>2021-02-06T13:09:23Z</time>
      </trkpt>
      <trkpt lat="48.60423" lon="2.00071">
        <ele>115</ele>
        <time>2021-02-06T13:09:32Z</time>
      </trkpt>
      <trkpt lat="48.60418" lon="2.00102">
        <ele>115</ele>
        <time>2021-02-06T13:09:43Z</time>
      </trkpt>
      <trkpt lat="48.60412" lon="2.00204">
        <ele>113</ele>
        <time>2021-02-06T13:10:17Z</time>
      </trkpt>
      <trkpt lat="48.60406" lon="2.00258">
        <ele>112</ele>
        <time>2021-02-06T13:10:35Z</time>
      </trkpt>
      <trkpt lat="48.60407" lon="2.00279">
        <ele>112</ele>
        <time>2021-02-06T13:10:42Z</time>
      </trkpt>
      <trkpt lat="48.60415" lon="2.00318">
        <ele>112</ele>
        <time>2021-02-06T13:10:55Z</time>
      </trkpt>
      <trkpt lat="48.60413" lon="2.00343">
        <ele>112</ele>
        <time>2021-02-06T13:11:04Z</time>
      </trkpt>
      <trkpt lat="48.60399" lon="2.00372">
        <ele>111</ele>
        <time>2021-02-06T13:11:16Z</time>
      </trkpt>
      <trkpt lat="48.60385" lon="2.00391">
        <ele>110</ele>
        <time>2021-02-06T13:11:25Z</time>
      </trkpt>
      <trkpt lat="48.60376" lon="2.00392">
        <ele>110</ele>
        <time>2021-02-06T13:11:30Z</time>
      </trkpt>
      <trkpt lat="48.60345" lon="2.00382">
        <ele>109</ele>
        <time>2021-02-06T13:11:45Z</time>
      </trkpt>
      <trkpt lat="48.60334" lon="2.00381">
        <ele>109</ele>
        <time>2021-02-06T13:11:51Z</time>
      </trkpt>
      <trkpt lat="48.60329" lon="2.00384">
        <ele>109</ele>
        <time>2021-02-06T13:11:54Z</time>
      </trkpt>
      <trkpt lat="48.60325" lon="2.00394">
        <ele>109</ele>
        <time>2021-02-06T13:11:57Z</time>
      </trkpt>
      <trkpt lat="48.60332" lon="2.00439">
        <ele>110</ele>
        <time>2021-02-06T13:12:13Z</time>
      </trkpt>
      <trkpt lat="48.60322" lon="2.0048">
        <ele>111</ele>
        <time>2021-02-06T13:12:27Z</time>
      </trkpt>
      <trkpt lat="48.60324" lon="2.00549">
        <ele>112</ele>
        <time>2021-02-06T13:12:50Z</time>
      </trkpt>
      <trkpt lat="48.6033" lon="2.00563">
        <ele>113</ele>
        <time>2021-02-06T13:12:56Z</time>
      </trkpt>
      <trkpt lat="48.60334" lon="2.00583">
        <ele>113</ele>
        <time>2021-02-06T13:13:03Z</time>
      </trkpt>
      <trkpt lat="48.60353" lon="2.00618">
        <ele>113</ele>
        <time>2021-02-06T13:13:17Z</time>
      </trkpt>
      <trkpt lat="48.60356" lon="2.00677">
        <ele>112</ele>
        <time>2021-02-06T13:13:37Z</time>
      </trkpt>
      <trkpt lat="48.60361" lon="2.00689">
        <ele>112</ele>
        <time>2021-02-06T13:13:42Z</time>
      </trkpt>
      <trkpt lat="48.60366" lon="2.00691">
        <ele>112</ele>
        <time>2021-02-06T13:13:44Z</time>
      </trkpt>
      <trkpt lat="48.60381" lon="2.0069">
        <ele>113</ele>
        <time>2021-02-06T13:13:52Z</time>
      </trkpt>
      <trkpt lat="48.60425" lon="2.00682">
        <ele>114</ele>
        <time>2021-02-06T13:14:14Z</time>
      </trkpt>
      <trkpt lat="48.60492" lon="2.0066">
        <ele>118</ele>
        <time>2021-02-06T13:14:48Z</time>
      </trkpt>
      <trkpt lat="48.60505" lon="2.00658">
        <ele>119</ele>
        <time>2021-02-06T13:14:55Z</time>
      </trkpt>
      <trkpt lat="48.60517" lon="2.00659">
        <ele>119</ele>
        <time>2021-02-06T13:15:01Z</time>
      </trkpt>
      <trkpt lat="48.60561" lon="2.00678">
        <ele>123</ele>
        <time>2021-02-06T13:15:24Z</time>
      </trkpt>
      <trkpt lat="48.60583" lon="2.0068">
        <ele>124</ele>
        <time>2021-02-06T13:15:35Z</time>
      </trkpt>
      <trkpt lat="48.60627" lon="2.0067">
        <ele>129</ele>
        <time>2021-02-06T13:15:57Z</time>
      </trkpt>
      <trkpt lat="48.60672" lon="2.00656">
        <ele>133</ele>
        <time>2021-02-06T13:16:20Z</time>
      </trkpt>
      <trkpt lat="48.60714" lon="2.00648">
        <ele>138</ele>
        <time>2021-02-06T13:16:41Z</time>
      </trkpt>
      <trkpt lat="48.60758" lon="2.00631">
        <ele>143</ele>
        <time>2021-02-06T13:17:04Z</time>
      </trkpt>
      <trkpt lat="48.60767" lon="2.00618">
        <ele>143</ele>
        <time>2021-02-06T13:17:10Z</time>
      </trkpt>
      <trkpt lat="48.60781" lon="2.00573">
        <ele>144</ele>
        <time>2021-02-06T13:17:27Z</time>
      </trkpt>
      <trkpt lat="48.60781" lon="2.00528">
        <ele>149</ele>
        <time>2021-02-06T13:17:42Z</time>
      </trkpt>
      <trkpt lat="48.60788" lon="2.00495">
        <ele>151</ele>
        <time>2021-02-06T13:17:53Z</time>
      </trkpt>
      <trkpt lat="48.60805" lon="2.0046">
        <ele>154</ele>
        <time>2021-02-06T13:18:07Z</time>
      </trkpt>
      <trkpt lat="48.60828" lon="2.00434">
        <ele>157</ele>
        <time>2021-02-06T13:18:22Z</time>
      </trkpt>
      <trkpt lat="48.60843" lon="2.00425">
        <ele>159</ele>
        <time>2021-02-06T13:18:30Z</time>
      </trkpt>
      <trkpt lat="48.60945" lon="2.00391">
        <ele>164</ele>
        <time>2021-02-06T13:19:22Z</time>
      </trkpt>
      <trkpt lat="48.60976" lon="2.0037">
        <ele>163</ele>
        <time>2021-02-06T13:19:39Z</time>
      </trkpt>
      <trkpt lat="48.61008" lon="2.00356">
        <ele>163</ele>
        <time>2021-02-06T13:19:56Z</time>
      </trkpt>
      <trkpt lat="48.61042" lon="2.00328">
        <ele>163</ele>
        <time>2021-02-06T13:20:15Z</time>
      </trkpt>
      <trkpt lat="48.6112" lon="2.00277">
        <ele>162</ele>
        <time>2021-02-06T13:20:58Z</time>
      </trkpt>
      <trkpt lat="48.6115" lon="2.00271">
        <ele>161</ele>
        <time>2021-02-06T13:21:13Z</time>
      </trkpt>
      <trkpt lat="48.61195" lon="2.00246">
        <ele>157</ele>
        <time>2021-02-06T13:21:37Z</time>
      </trkpt>
      <trkpt lat="48.61226" lon="2.00222">
        <ele>153</ele>
        <time>2021-02-06T13:21:54Z</time>
      </trkpt>
      <trkpt lat="48.61242" lon="2.00202">
        <ele>151</ele>
        <time>2021-02-06T13:22:05Z</time>
      </trkpt>
      <trkpt lat="48.61248" lon="2.00198">
        <ele>150</ele>
        <time>2021-02-06T13:22:08Z</time>
      </trkpt>
      <trkpt lat="48.61255" lon="2.002">
        <ele>149</ele>
        <time>2021-02-06T13:22:11Z</time>
      </trkpt>
      <trkpt lat="48.61266" lon="2.0021">
        <ele>149</ele>
        <time>2021-02-06T13:22:18Z</time>
      </trkpt>
      <trkpt lat="48.61296" lon="2.00229">
        <ele>147</ele>
        <time>2021-02-06T13:22:34Z</time>
      </trkpt>
      <trkpt lat="48.61325" lon="2.00236">
        <ele>144</ele>
        <time>2021-02-06T13:22:49Z</time>
      </trkpt>
      <trkpt lat="48.61336" lon="2.00231">
        <ele>142</ele>
        <time>2021-02-06T13:22:55Z</time>
      </trkpt>
      <trkpt lat="48.61351" lon="2.00228">
        <ele>140</ele>
        <time>2021-02-06T13:23:02Z</time>
      </trkpt>
      <trkpt lat="48.61393" lon="2.0021">
        <ele>136</ele>
        <time>2021-02-06T13:23:24Z</time>
      </trkpt>
      <trkpt lat="48.6142" lon="2.00188">
        <ele>133</ele>
        <time>2021-02-06T13:23:39Z</time>
      </trkpt>
      <trkpt lat="48.61435" lon="2.00181">
        <ele>131</ele>
        <time>2021-02-06T13:23:47Z</time>
      </trkpt>
      <trkpt lat="48.61497" lon="2.00271">
        <ele>131</ele>
        <time>2021-02-06T13:24:30Z</time>
      </trkpt>
      <trkpt lat="48.61541" lon="2.0035">
        <ele>133</ele>
        <time>2021-02-06T13:25:04Z</time>
      </trkpt>
      <trkpt lat="48.61555" lon="2.00389">
        <ele>133</ele>
        <time>2021-02-06T13:25:19Z</time>
      </trkpt>
      <trkpt lat="48.61556" lon="2.00404">
        <ele>134</ele>
        <time>2021-02-06T13:25:24Z</time>
      </trkpt>
      <trkpt lat="48.61554" lon="2.00411">
        <ele>134</ele>
        <time>2021-02-06T13:25:27Z</time>
      </trkpt>
      <trkpt lat="48.61547" lon="2.00419">
        <ele>135</ele>
        <time>2021-02-06T13:25:31Z</time>
      </trkpt>
      <trkpt lat="48.61516" lon="2.00444">
        <ele>138</ele>
        <time>2021-02-06T13:25:49Z</time>
      </trkpt>
      <trkpt lat="48.6151" lon="2.00454">
        <ele>139</ele>
        <time>2021-02-06T13:25:53Z</time>
      </trkpt>
      <trkpt lat="48.61501" lon="2.00511">
        <ele>141</ele>
        <time>2021-02-06T13:26:12Z</time>
      </trkpt>
      <trkpt lat="48.61482" lon="2.00588">
        <ele>145</ele>
        <time>2021-02-06T13:26:40Z</time>
      </trkpt>
      <trkpt lat="48.61473" lon="2.00613">
        <ele>146</ele>
        <time>2021-02-06T13:26:49Z</time>
      </trkpt>
      <trkpt lat="48.6146" lon="2.00633">
        <ele>147</ele>
        <time>2021-02-06T13:26:58Z</time>
      </trkpt>
      <trkpt lat="48.61455" lon="2.00655">
        <ele>148</ele>
        <time>2021-02-06T13:27:06Z</time>
      </trkpt>
      <trkpt lat="48.61444" lon="2.00685">
        <ele>149</ele>
        <time>2021-02-06T13:27:17Z</time>
      </trkpt>
      <trkpt lat="48.61435" lon="2.00695">
        <ele>149</ele>
        <time>2021-02-06T13:27:23Z</time>
      </trkpt>
      <trkpt lat="48.61412" lon="2.00701">
        <ele>151</ele>
        <time>2021-02-06T13:27:35Z</time>
      </trkpt>
      <trkpt lat="48.61404" lon="2.00706">
        <ele>150</ele>
        <time>2021-02-06T13:27:39Z</time>
      </trkpt>
      <trkpt lat="48.61389" lon="2.00733">
        <ele>149</ele>
        <time>2021-02-06T13:27:51Z</time>
      </trkpt>
      <trkpt lat="48.61379" lon="2.0076">
        <ele>149</ele>
        <time>2021-02-06T13:28:01Z</time>
      </trkpt>
      <trkpt lat="48.61369" lon="2.00808">
        <ele>148</ele>
        <time>2021-02-06T13:28:18Z</time>
      </trkpt>
      <trkpt lat="48.61355" lon="2.00843">
        <ele>148</ele>
        <time>2021-02-06T13:28:31Z</time>
      </trkpt>
      <trkpt lat="48.61353" lon="2.0086">
        <ele>148</ele>
        <time>2021-02-06T13:28:37Z</time>
      </trkpt>
      <trkpt lat="48.61355" lon="2.00872">
        <ele>148</ele>
        <time>2021-02-06T13:28:41Z</time>
      </trkpt>
      <trkpt lat="48.61388" lon="2.00936">
        <ele>146</ele>
        <time>2021-02-06T13:29:08Z</time>
      </trkpt>
      <trkpt lat="48.61399" lon="2.00947">
        <ele>145</ele>
        <time>2021-02-06T13:29:14Z</time>
      </trkpt>
      <trkpt lat="48.61424" lon="2.00984">
        <ele>142</ele>
        <time>2021-02-06T13:29:32Z</time>
      </trkpt>
      <trkpt lat="48.61436" lon="2.01032">
        <ele>140</ele>
        <time>2021-02-06T13:29:49Z</time>
      </trkpt>
      <trkpt lat="48.61439" lon="2.01058">
        <ele>140</ele>
        <time>2021-02-06T13:29:58Z</time>
      </trkpt>
      <trkpt lat="48.61449" lon="2.01083">
        <ele>139</ele>
        <time>2021-02-06T13:30:07Z</time>
      </trkpt>
      <trkpt lat="48.61458" lon="2.01123">
        <ele>138</ele>
        <time>2021-02-06T13:30:21Z</time>
      </trkpt>
      <trkpt lat="48.61471" lon="2.01137">
        <ele>137</ele>
        <time>2021-02-06T13:30:29Z</time>
      </trkpt>
      <trkpt lat="48.61505" lon="2.01186">
        <ele>136</ele>
        <time>2021-02-06T13:30:53Z</time>
      </trkpt>
      <trkpt lat="48.61518" lon="2.01199">
        <ele>135</ele>
        <time>2021-02-06T13:31:00Z</time>
      </trkpt>
      <trkpt lat="48.61526" lon="2.01212">
        <ele>135</ele>
        <time>2021-02-06T13:31:06Z</time>
      </trkpt>
      <trkpt lat="48.61527" lon="2.01228">
        <ele>135</ele>
        <time>2021-02-06T13:31:12Z</time>
      </trkpt>
      <trkpt lat="48.61516" lon="2.01272">
        <ele>135</ele>
        <time>2021-02-06T13:31:27Z</time>
      </trkpt>
      <trkpt lat="48.61518" lon="2.01306">
        <ele>135</ele>
        <time>2021-02-06T13:31:39Z</time>
      </trkpt>
      <trkpt lat="48.61537" lon="2.01342">
        <ele>134</ele>
        <time>2021-02-06T13:31:54Z</time>
      </trkpt>
      <trkpt lat="48.61544" lon="2.01362">
        <ele>133</ele>
        <time>2021-02-06T13:32:01Z</time>
      </trkpt>
      <trkpt lat="48.61544" lon="2.01382">
        <ele>132</ele>
        <time>2021-02-06T13:32:08Z</time>
      </trkpt>
      <trkpt lat="48.61538" lon="2.01402">
        <ele>132</ele>
        <time>2021-02-06T13:32:15Z</time>
      </trkpt>
      <trkpt lat="48.61542" lon="2.01443">
        <ele>130</ele>
        <time>2021-02-06T13:32:29Z</time>
      </trkpt>
      <trkpt lat="48.61551" lon="2.01473">
        <ele>129</ele>
        <time>2021-02-06T13:32:40Z</time>
      </trkpt>
      <trkpt lat="48.61552" lon="2.01494">
        <ele>128</ele>
        <time>2021-02-06T13:32:47Z</time>
      </trkpt>
      <trkpt lat="48.61574" lon="2.01553">
        <ele>126</ele>
        <time>2021-02-06T13:33:09Z</time>
      </trkpt>
      <trkpt lat="48.61578" lon="2.01575">
        <ele>124</ele>
        <time>2021-02-06T13:33:17Z</time>
      </trkpt>
      <trkpt lat="48.61609" lon="2.0159">
        <ele>124</ele>
        <time>2021-02-06T13:33:33Z</time>
      </trkpt>
      <trkpt lat="48.61634" lon="2.01622">
        <ele>122</ele>
        <time>2021-02-06T13:33:49Z</time>
      </trkpt>
      <trkpt lat="48.6165" lon="2.01632">
        <ele>122</ele>
        <time>2021-02-06T13:33:58Z</time>
      </trkpt>
      <trkpt lat="48.61686" lon="2.01646">
        <ele>120</ele>
        <time>2021-02-06T13:34:17Z</time>
      </trkpt>
      <trkpt lat="48.61701" lon="2.01648">
        <ele>120</ele>
        <time>2021-02-06T13:34:24Z</time>
      </trkpt>
      <trkpt lat="48.61718" lon="2.01654">
        <ele>119</ele>
        <time>2021-02-06T13:34:33Z</time>
      </trkpt>
      <trkpt lat="48.61755" lon="2.01672">
        <ele>117</ele>
        <time>2021-02-06T13:34:52Z</time>
      </trkpt>
      <trkpt lat="48.61807" lon="2.01711">
        <ele>121</ele>
        <time>2021-02-06T13:35:21Z</time>
      </trkpt>
      <trkpt lat="48.61836" lon="2.01739">
        <ele>122</ele>
        <time>2021-02-06T13:35:39Z</time>
      </trkpt>
      <trkpt lat="48.61877" lon="2.01765">
        <ele>124</ele>
        <time>2021-02-06T13:36:01Z</time>
      </trkpt>
      <trkpt lat="48.61956" lon="2.01808">
        <ele>126</ele>
        <time>2021-02-06T13:36:43Z</time>
      </trkpt>
      <trkpt lat="48.61988" lon="2.01814">
        <ele>127</ele>
        <time>2021-02-06T13:36:59Z</time>
      </trkpt>
      <trkpt lat="48.62" lon="2.01819">
        <ele>128</ele>
        <time>2021-02-06T13:37:05Z</time>
      </trkpt>
      <trkpt lat="48.62021" lon="2.01841">
        <ele>128</ele>
        <time>2021-02-06T13:37:18Z</time>
      </trkpt>
      <trkpt lat="48.62038" lon="2.01866">
        <ele>128</ele>
        <time>2021-02-06T13:37:30Z</time>
      </trkpt>
      <trkpt lat="48.62044" lon="2.01886">
        <ele>127</ele>
        <time>2021-02-06T13:37:37Z</time>
      </trkpt>
      <trkpt lat="48.6204" lon="2.01929">
        <ele>125</ele>
        <time>2021-02-06T13:37:51Z</time>
      </trkpt>
      <trkpt lat="48.62031" lon="2.01956">
        <ele>124</ele>
        <time>2021-02-06T13:38:01Z</time>
      </trkpt>
      <trkpt lat="48.62014" lon="2.0199">
        <ele>122</ele>
        <time>2021-02-06T13:38:16Z</time>
      </trkpt>
      <trkpt lat="48.62006" lon="2.02">
        <ele>122</ele>
        <time>2021-02-06T13:38:21Z</time>
      </trkpt>
      <trkpt lat="48.62006" lon="2.02011">
        <ele>122</ele>
        <time>2021-02-06T13:38:24Z</time>
      </trkpt>
      <trkpt lat="48.62016" lon="2.02029">
        <ele>122</ele>
        <time>2021-02-06T13:38:32Z</time>
      </trkpt>
      <trkpt lat="48.62041" lon="2.02055">
        <ele>121</ele>
        <time>2021-02-06T13:38:47Z</time>
      </trkpt>
      <trkpt lat="48.62082" lon="2.02104">
        <ele>120</ele>
        <time>2021-02-06T13:39:14Z</time>
      </trkpt>
      <trkpt lat="48.62105" lon="2.02129">
        <ele>120</ele>
        <time>2021-02-06T13:39:28Z</time>
      </trkpt>
      <trkpt lat="48.62121" lon="2.02139">
        <ele>121</ele>
        <time>2021-02-06T13:39:36Z</time>
      </trkpt>
      <trkpt lat="48.62112" lon="2.02182">
        <ele>121</ele>
        <time>2021-02-06T13:39:51Z</time>
      </trkpt>
      <trkpt lat="48.62114" lon="2.02224">
        <ele>121</ele>
        <time>2021-02-06T13:40:05Z</time>
      </trkpt>
      <trkpt lat="48.6211" lon="2.02261">
        <ele>121</ele>
        <time>2021-02-06T13:40:18Z</time>
      </trkpt>
      <trkpt lat="48.62125" lon="2.02303">
        <ele>122</ele>
        <time>2021-02-06T13:40:33Z</time>
      </trkpt>
      <trkpt lat="48.62134" lon="2.02348">
        <ele>122</ele>
        <time>2021-02-06T13:40:49Z</time>
      </trkpt>
      <trkpt lat="48.6215" lon="2.02405">
        <ele>122</ele>
        <time>2021-02-06T13:41:09Z</time>
      </trkpt>
      <trkpt lat="48.62158" lon="2.02421">
        <ele>123</ele>
        <time>2021-02-06T13:41:16Z</time>
      </trkpt>
      <trkpt lat="48.62167" lon="2.02432">
        <ele>123</ele>
        <time>2021-02-06T13:41:22Z</time>
      </trkpt>
      <trkpt lat="48.62171" lon="2.02447">
        <ele>124</ele>
        <time>2021-02-06T13:41:27Z</time>
      </trkpt>
      <trkpt lat="48.62169" lon="2.02456">
        <ele>124</ele>
        <time>2021-02-06T13:41:30Z</time>
      </trkpt>
      <trkpt lat="48.62143" lon="2.02482">
        <ele>124</ele>
        <time>2021-02-06T13:41:46Z</time>
      </trkpt>
      <trkpt lat="48.62123" lon="2.02495">
        <ele>123</ele>
        <time>2021-02-06T13:41:57Z</time>
      </trkpt>
      <trkpt lat="48.6211" lon="2.02507">
        <ele>123</ele>
        <time>2021-02-06T13:42:04Z</time>
      </trkpt>
      <trkpt lat="48.621" lon="2.02508">
        <ele>123</ele>
        <time>2021-02-06T13:42:10Z</time>
      </trkpt>
      <trkpt lat="48.62066" lon="2.02503">
        <ele>121</ele>
        <time>2021-02-06T13:42:27Z</time>
      </trkpt>
      <trkpt lat="48.62056" lon="2.02504">
        <ele>121</ele>
        <time>2021-02-06T13:42:32Z</time>
      </trkpt>
      <trkpt lat="48.61975" lon="2.02553">
        <ele>120</ele>
        <time>2021-02-06T13:43:15Z</time>
      </trkpt>
      <trkpt lat="48.619" lon="2.02667">
        <ele>122</ele>
        <time>2021-02-06T13:44:08Z</time>
      </trkpt>
      <trkpt lat="48.61866" lon="2.02709">
        <ele>121</ele>
        <time>2021-02-06T13:44:30Z</time>
      </trkpt>
      <trkpt lat="48.61853" lon="2.02731">
        <ele>121</ele>
        <time>2021-02-06T13:44:40Z</time>
      </trkpt>
      <trkpt lat="48.61811" lon="2.02786">
        <ele>120</ele>
        <time>2021-02-06T13:45:08Z</time>
      </trkpt>
    </trkseg>
  </trk>
</gpx>